createdAt,value
2022-12-16T00:00:03.603Z,26.88
2022-12-16T00:02:01.862Z,26.75
2022-12-16T00:04:00.089Z,26.69
2022-12-16T00:05:58.316Z,26.63
2022-12-16T00:07:56.688Z,26.56
2022-12-16T00:09:54.815Z,26.75
2022-12-16T00:11:53.002Z,26.75
2022-12-16T00:13:52.783Z,26.69
2022-12-16T00:15:53.059Z,26.56
2022-12-16T00:17:51.730Z,26.50
2022-12-16T00:19:49.813Z,26.50
2022-12-16T00:21:48.355Z,26.50
2022-12-16T00:23:46.644Z,26.44
2022-12-16T00:25:44.739Z,26.44
2022-12-16T00:27:42.720Z,26.50
2022-12-16T00:29:40.820Z,26.56
2022-12-16T00:31:39.111Z,26.94
2022-12-16T00:33:37.454Z,27.13
2022-12-16T00:35:35.691Z,27.19
2022-12-16T00:37:33.883Z,27.31
2022-12-16T00:39:31.862Z,27.38
2022-12-16T00:41:29.849Z,27.25
2022-12-16T00:43:28.113Z,27.19
2022-12-16T00:45:26.347Z,27.25
2022-12-16T00:47:24.720Z,27.19
2022-12-16T00:49:22.715Z,27.19
2022-12-16T00:51:20.693Z,27.25
2022-12-16T00:53:18.682Z,27.25
2022-12-16T00:55:16.873Z,27.31
2022-12-16T00:57:15.030Z,27.31
2022-12-16T00:59:13.106Z,27.38
2022-12-16T01:01:11.127Z,27.31
2022-12-16T01:03:09.545Z,26.94
2022-12-16T01:05:07.904Z,26.69
2022-12-16T01:07:06.449Z,26.81
2022-12-16T01:09:04.522Z,26.75
2022-12-16T01:11:02.727Z,26.81
2022-12-16T01:13:00.836Z,26.75
2022-12-16T01:14:59.144Z,26.63
2022-12-16T01:16:57.401Z,26.50
2022-12-16T01:18:57.198Z,26.63
2022-12-16T01:20:55.310Z,26.56
2022-12-16T01:22:53.469Z,26.44
2022-12-16T01:24:52.840Z,26.94
2022-12-16T01:26:50.929Z,27.13
2022-12-16T01:28:49.180Z,27.25
2022-12-16T01:30:47.323Z,27.31
2022-12-16T01:32:45.534Z,27.38
2022-12-16T01:34:45.412Z,27.44
2022-12-16T01:36:44.655Z,27.38
2022-12-16T01:38:42.625Z,27.44
2022-12-16T01:40:40.886Z,27.50
2022-12-16T01:42:38.796Z,27.56
2022-12-16T01:44:37.064Z,27.31
2022-12-16T01:46:38.584Z,27.44
2022-12-16T01:48:36.525Z,27.38
2022-12-16T01:50:35.110Z,27.31
2022-12-16T01:52:33.287Z,27.31
2022-12-16T01:54:31.599Z,27.38
2022-12-16T01:56:29.923Z,27.38
2022-12-16T01:58:28.072Z,27.31
2022-12-16T02:00:26.411Z,26.94
2022-12-16T02:02:24.863Z,26.81
2022-12-16T02:04:23.150Z,26.69
2022-12-16T02:06:20.061Z,26.63
2022-12-16T02:08:18.127Z,26.75
2022-12-16T02:10:16.334Z,26.69
2022-12-16T02:12:14.258Z,26.56
2022-12-16T02:14:12.533Z,26.63
2022-12-16T02:16:15.293Z,27.00
2022-12-16T02:18:14.869Z,27.25
2022-12-16T02:20:12.966Z,27.38
2022-12-16T02:22:11.198Z,27.44
2022-12-16T02:24:10.332Z,27.50
2022-12-16T02:26:08.428Z,27.44
2022-12-16T02:28:06.447Z,27.38
2022-12-16T02:30:04.697Z,27.44
2022-12-16T02:32:02.995Z,27.44
2022-12-16T02:34:01.148Z,28.75
2022-12-16T02:35:59.588Z,28.56
2022-12-16T02:37:57.865Z,26.63
2022-12-16T02:39:56.178Z,24.56
2022-12-16T02:41:54.469Z,28.13
2022-12-16T02:43:53.444Z,27.94
2022-12-16T02:45:51.551Z,28.56
2022-12-16T02:47:50.464Z,28.88
2022-12-16T02:49:48.789Z,29.06
2022-12-16T02:51:46.888Z,29.19
2022-12-16T02:53:44.982Z,29.25
2022-12-16T02:55:43.047Z,29.44
2022-12-16T02:57:41.215Z,29.63
2022-12-16T02:59:39.423Z,29.63
2022-12-16T03:01:37.603Z,29.63
2022-12-16T03:03:36.648Z,29.56
2022-12-16T03:05:34.855Z,29.44
2022-12-16T03:07:33.130Z,29.25
2022-12-16T03:09:31.345Z,29.13
2022-12-16T03:11:29.639Z,29.19
2022-12-16T03:13:27.753Z,29.06
2022-12-16T03:15:26.394Z,28.94
2022-12-16T03:17:24.639Z,28.50
2022-12-16T03:19:22.742Z,28.63
2022-12-16T03:21:21.016Z,28.19
2022-12-16T03:23:19.928Z,28.31
2022-12-16T03:25:18.193Z,27.94
2022-12-16T03:27:16.534Z,28.00
2022-12-16T03:29:14.520Z,28.06
2022-12-16T03:31:12.913Z,27.75
2022-12-16T03:33:11.047Z,27.63
2022-12-16T03:35:08.986Z,27.63
2022-12-16T03:37:07.342Z,27.63
2022-12-16T03:39:05.680Z,27.63
2022-12-16T03:41:03.801Z,27.19
2022-12-16T03:43:02.101Z,26.88
2022-12-16T03:45:00.653Z,26.81
2022-12-16T03:46:58.738Z,26.81
2022-12-16T03:48:57.012Z,26.75
2022-12-16T03:50:55.746Z,26.63
2022-12-16T03:52:53.650Z,26.63
2022-12-16T03:54:51.935Z,26.69
2022-12-16T03:56:49.875Z,26.69
2022-12-16T03:58:48.195Z,26.63
2022-12-16T04:00:46.329Z,26.88
2022-12-16T04:02:44.882Z,26.81
2022-12-16T04:04:43.128Z,26.75
2022-12-16T04:06:41.303Z,26.63
2022-12-16T04:08:39.285Z,26.63
2022-12-16T04:10:54.993Z,26.69
2022-12-16T04:13:07.179Z,26.63
2022-12-16T04:15:22.892Z,26.69
2022-12-16T04:17:38.655Z,26.81
2022-12-16T04:19:55.153Z,27.19
2022-12-16T04:22:10.984Z,27.50
2022-12-16T04:24:22.607Z,27.38
2022-12-16T04:26:20.567Z,27.44
2022-12-16T04:28:17.693Z,27.38
2022-12-16T04:30:22.365Z,27.44
2022-12-16T04:32:20.708Z,27.50
2022-12-16T04:34:26.931Z,27.56
2022-12-16T04:36:42.427Z,27.63
2022-12-16T04:38:57.879Z,27.69
2022-12-16T04:41:13.682Z,27.50
2022-12-16T04:43:29.559Z,27.44
2022-12-16T04:45:45.781Z,27.50
2022-12-16T04:48:01.392Z,27.50
2022-12-16T04:50:16.699Z,27.50
2022-12-16T04:52:32.171Z,27.31
2022-12-16T04:54:48.046Z,27.38
2022-12-16T04:57:04.000Z,26.81
2022-12-16T04:59:19.557Z,26.94
2022-12-16T05:01:35.539Z,26.75
2022-12-16T05:03:59.737Z,26.69
2022-12-16T05:06:15.187Z,26.56
2022-12-16T05:08:30.915Z,26.69
2022-12-16T05:10:46.430Z,26.56
2022-12-16T05:13:02.176Z,26.81
2022-12-16T05:15:18.107Z,27.38
2022-12-16T05:17:33.588Z,27.38
2022-12-16T05:19:49.185Z,27.38
2022-12-16T05:22:04.917Z,27.44
2022-12-16T05:24:20.678Z,27.44
2022-12-16T05:26:36.558Z,27.56
2022-12-16T05:28:52.502Z,27.63
2022-12-16T05:31:08.243Z,27.69
2022-12-16T05:33:23.938Z,27.44
2022-12-16T05:35:38.925Z,27.56
2022-12-16T05:37:54.446Z,27.50
2022-12-16T05:40:10.330Z,27.50
2022-12-16T05:42:37.547Z,27.56
2022-12-16T05:44:53.048Z,27.56
2022-12-16T05:47:08.504Z,29.25
2022-12-16T05:49:24.016Z,29.19
2022-12-16T05:51:39.659Z,26.69
2022-12-16T05:53:55.428Z,26.63
2022-12-16T05:56:11.236Z,28.38
2022-12-16T05:58:26.891Z,28.94
2022-12-16T06:00:42.299Z,29.31
2022-12-16T06:02:58.284Z,29.38
2022-12-16T06:05:13.736Z,29.44
2022-12-16T06:07:29.571Z,29.63
2022-12-16T06:09:45.594Z,29.69
2022-12-16T06:12:01.108Z,29.69
2022-12-16T06:14:16.449Z,29.63
2022-12-16T06:16:43.659Z,29.50
2022-12-16T06:18:59.738Z,29.31
2022-12-16T06:21:15.506Z,29.19
2022-12-16T06:23:31.583Z,29.13
2022-12-16T06:25:47.359Z,29.13
2022-12-16T06:28:03.147Z,28.81
2022-12-16T06:30:19.252Z,28.69
2022-12-16T06:32:35.252Z,28.69
2022-12-16T06:34:56.551Z,28.25
2022-12-16T06:37:11.988Z,28.38
2022-12-16T06:39:27.737Z,28.25
2022-12-16T06:41:43.666Z,28.25
2022-12-16T06:43:59.357Z,27.94
2022-12-16T06:46:15.371Z,27.88
2022-12-16T06:48:31.344Z,27.81
2022-12-16T06:50:48.755Z,27.88
2022-12-16T06:53:06.973Z,27.88
2022-12-16T06:55:22.545Z,27.44
2022-12-16T06:57:38.438Z,27.06
2022-12-16T06:59:54.124Z,27.13
2022-12-16T07:02:09.616Z,30.56
2022-12-16T07:04:21.622Z,30.88
2022-12-16T07:06:37.099Z,30.81
2022-12-16T07:08:53.027Z,30.75
2022-12-16T07:11:17.547Z,30.50
2022-12-16T07:13:33.819Z,30.19
2022-12-16T07:15:49.743Z,31.06
2022-12-16T07:18:05.122Z,31.44
2022-12-16T07:20:21.199Z,31.63
2022-12-16T07:22:36.875Z,31.63
2022-12-16T07:24:52.691Z,31.63
2022-12-16T07:27:08.225Z,31.69
2022-12-16T07:29:23.752Z,31.69
2022-12-16T07:31:39.756Z,31.75
2022-12-16T07:33:55.653Z,31.75
2022-12-16T07:36:11.264Z,31.81
2022-12-16T07:38:27.088Z,31.88
2022-12-16T07:40:43.036Z,31.88
2022-12-16T07:42:58.717Z,31.94
2022-12-16T07:45:14.481Z,31.94
2022-12-16T07:47:30.355Z,32.00
2022-12-16T07:49:46.071Z,32.00
2022-12-16T07:52:01.721Z,32.06
2022-12-16T07:54:17.524Z,32.13
2022-12-16T07:56:34.626Z,32.13
2022-12-16T07:58:50.554Z,32.19
2022-12-16T08:01:09.350Z,32.25
2022-12-16T08:03:25.782Z,32.31
2022-12-16T08:05:41.694Z,32.31
2022-12-16T08:07:57.396Z,32.38
2022-12-16T08:10:13.035Z,32.44
2022-12-16T08:12:28.669Z,32.44
2022-12-16T08:14:44.668Z,32.50
2022-12-16T08:17:00.226Z,32.56
2022-12-16T08:19:16.106Z,32.56
2022-12-16T08:21:31.832Z,32.56
2022-12-16T08:23:47.610Z,32.63
2022-12-16T08:26:03.374Z,32.63
2022-12-16T08:28:19.122Z,32.69
2022-12-16T08:30:34.938Z,32.69
2022-12-16T08:32:57.223Z,32.69
2022-12-16T08:35:14.698Z,32.69
2022-12-16T08:37:30.523Z,32.69
2022-12-16T08:39:51.309Z,32.69
2022-12-16T08:42:20.195Z,32.69
2022-12-16T08:44:35.714Z,32.75
2022-12-16T08:46:51.623Z,32.75
2022-12-16T08:49:07.634Z,32.75
2022-12-16T08:51:23.179Z,32.75
2022-12-16T08:53:39.023Z,32.75
2022-12-16T08:55:55.891Z,32.75
2022-12-16T08:58:11.737Z,32.75
2022-12-16T09:00:27.330Z,32.75
2022-12-16T09:02:43.316Z,32.75
2022-12-16T09:04:59.415Z,32.69
2022-12-16T09:07:14.770Z,32.69
2022-12-16T09:09:30.634Z,32.56
2022-12-16T09:11:46.549Z,32.50
2022-12-16T09:14:02.365Z,32.44
2022-12-16T09:16:19.827Z,32.38
2022-12-16T09:18:35.946Z,32.31
2022-12-16T09:20:51.654Z,32.25
2022-12-16T09:23:07.037Z,32.25
2022-12-16T09:25:22.998Z,32.19
2022-12-16T09:27:50.580Z,32.19
2022-12-16T09:30:06.741Z,32.13
2022-12-16T09:32:22.288Z,32.13
2022-12-16T09:34:46.452Z,32.06
2022-12-16T09:37:02.327Z,32.00
2022-12-16T09:39:18.103Z,28.13
2022-12-16T09:41:33.650Z,27.25
2022-12-16T09:43:49.330Z,25.56
2022-12-16T09:46:05.097Z,23.69
2022-12-16T09:48:21.018Z,27.44
2022-12-16T09:50:36.835Z,27.31
2022-12-16T09:52:52.494Z,28.00
2022-12-16T09:55:08.736Z,28.44
2022-12-16T09:57:33.047Z,28.69
2022-12-16T09:59:48.558Z,28.94
2022-12-16T10:02:04.430Z,29.31
2022-12-16T10:04:20.559Z,29.81
2022-12-16T10:06:39.262Z,30.13
2022-12-16T10:09:00.292Z,30.50
2022-12-16T10:11:15.729Z,30.88
2022-12-16T10:13:31.880Z,31.19
2022-12-16T10:15:47.817Z,31.44
2022-12-16T10:18:03.796Z,31.75
2022-12-16T10:20:19.544Z,32.00
2022-12-16T10:22:35.327Z,32.25
2022-12-16T10:24:50.901Z,32.44
2022-12-16T10:27:19.213Z,32.69
2022-12-16T10:29:37.094Z,32.88
2022-12-16T10:31:52.579Z,33.00
2022-12-16T10:34:08.005Z,33.13
2022-12-16T10:36:24.571Z,33.25
2022-12-16T10:38:40.093Z,33.31
2022-12-16T10:40:55.720Z,33.38
2022-12-16T10:43:11.319Z,33.44
2022-12-16T10:45:26.991Z,33.50
2022-12-16T10:47:42.316Z,33.50
2022-12-16T10:49:58.026Z,33.56
2022-12-16T10:52:13.724Z,33.50
2022-12-16T10:54:29.089Z,33.50
2022-12-16T10:56:44.729Z,33.50
2022-12-16T10:59:00.184Z,33.50
2022-12-16T11:01:15.660Z,33.44
2022-12-16T11:03:31.490Z,33.38
2022-12-16T11:05:47.436Z,33.31
2022-12-16T11:08:03.224Z,33.31
2022-12-16T11:10:22.939Z,33.19
2022-12-16T11:12:38.858Z,33.19
2022-12-16T11:15:20.496Z,33.06
2022-12-16T11:17:29.531Z,33.00
2022-12-16T11:19:44.987Z,32.94
2022-12-16T11:22:00.955Z,32.88
2022-12-16T11:24:16.812Z,32.81
2022-12-16T11:26:36.649Z,32.75
2022-12-16T11:28:53.079Z,32.69
2022-12-16T11:31:08.698Z,32.63
2022-12-16T11:33:24.712Z,32.63
2022-12-16T11:35:40.255Z,32.56
2022-12-16T11:37:55.801Z,32.50
2022-12-16T11:40:14.876Z,32.44
2022-12-16T11:42:30.463Z,32.38
2022-12-16T11:44:46.362Z,32.38
2022-12-16T11:47:02.348Z,32.38
2022-12-16T11:49:23.364Z,32.31
2022-12-16T11:51:40.566Z,32.31
2022-12-16T11:53:55.985Z,32.25
2022-12-16T11:56:15.959Z,32.19
2022-12-16T11:58:32.117Z,32.19
2022-12-16T12:01:02.461Z,32.19
2022-12-16T12:03:18.426Z,32.19
2022-12-16T12:05:34.055Z,32.19
2022-12-16T12:07:49.630Z,32.13
2022-12-16T12:10:05.415Z,32.19
2022-12-16T12:12:21.282Z,32.13
2022-12-16T12:14:37.080Z,32.19
2022-12-16T12:16:53.006Z,32.19
2022-12-16T12:19:09.385Z,32.13
2022-12-16T12:21:25.057Z,32.19
2022-12-16T12:23:37.013Z,32.13
2022-12-16T12:25:52.623Z,32.19
2022-12-16T12:28:08.532Z,32.19
2022-12-16T12:30:24.355Z,32.19
2022-12-16T12:32:39.898Z,32.19
2022-12-16T12:34:55.800Z,32.19
2022-12-16T12:37:11.772Z,32.25
2022-12-16T12:39:27.332Z,32.25
2022-12-16T12:41:43.231Z,32.25
2022-12-16T12:43:59.123Z,32.25
2022-12-16T12:46:15.024Z,32.25
2022-12-16T12:48:30.915Z,32.25
2022-12-16T12:50:46.550Z,32.31
2022-12-16T12:53:02.155Z,32.31
2022-12-16T12:55:17.956Z,32.31
2022-12-16T12:57:33.911Z,32.38
2022-12-16T13:54:00.080Z,29.94
2022-12-16T13:56:15.582Z,29.94
2022-12-16T13:58:31.342Z,30.81
2022-12-16T14:00:46.904Z,30.94
2022-12-16T14:02:58.837Z,30.81
2022-12-16T14:05:13.469Z,30.75
2022-12-16T14:07:28.843Z,30.69
2022-12-16T14:09:44.649Z,30.69
2022-12-16T14:12:00.163Z,30.63
2022-12-16T14:14:15.931Z,30.69
2022-12-16T14:16:31.779Z,30.75
2022-12-16T14:18:47.543Z,30.81
2022-12-16T14:21:03.141Z,30.81
2022-12-16T14:23:47.138Z,30.88
2022-12-16T14:25:54.316Z,30.94
2022-12-16T14:28:09.689Z,31.00
2022-12-16T14:30:25.582Z,31.06
2022-12-16T14:32:41.249Z,31.13
2022-12-16T14:34:56.859Z,31.25
2022-12-16T14:37:12.683Z,31.31
2022-12-16T14:39:28.342Z,31.44
2022-12-16T14:41:43.659Z,27.75
2022-12-16T14:43:59.286Z,27.06
2022-12-16T14:46:14.734Z,25.19
2022-12-16T14:48:40.998Z,23.88
2022-12-16T14:50:58.755Z,25.50
2022-12-16T14:53:14.564Z,26.56
2022-12-16T14:55:31.115Z,27.38
2022-12-16T14:57:46.735Z,28.06
2022-12-16T15:00:13.594Z,28.31
2022-12-16T15:02:29.567Z,28.50
2022-12-16T15:04:45.398Z,29.00
2022-12-16T15:07:01.466Z,29.63
2022-12-16T15:09:17.054Z,29.94
2022-12-16T15:11:32.992Z,30.38
2022-12-16T15:13:49.029Z,30.75
2022-12-16T15:16:04.798Z,31.13
2022-12-16T15:18:20.572Z,31.31
2022-12-16T15:20:36.145Z,31.75
2022-12-16T15:22:51.543Z,32.00
2022-12-16T15:25:06.964Z,32.25
2022-12-16T15:27:22.411Z,32.50
2022-12-16T15:29:38.101Z,32.69
2022-12-16T15:31:54.557Z,32.88
2022-12-16T15:34:13.695Z,33.00
2022-12-16T15:36:31.817Z,33.19
2022-12-16T15:38:47.465Z,33.25
2022-12-16T15:41:03.260Z,33.31
2022-12-16T15:43:19.222Z,33.38
2022-12-16T15:45:34.949Z,33.44
2022-12-16T15:47:50.577Z,33.44
2022-12-16T15:50:06.300Z,33.50
2022-12-16T15:52:22.252Z,33.50
2022-12-16T15:54:38.233Z,33.50
2022-12-16T15:56:54.071Z,33.50
2022-12-16T15:59:10.082Z,33.44
2022-12-16T16:01:26.089Z,33.44
2022-12-16T16:03:42.056Z,33.38
2022-12-16T16:05:58.275Z,33.31
2022-12-16T16:08:14.214Z,33.25
2022-12-16T16:10:30.124Z,33.19
2022-12-16T16:12:45.850Z,33.13
2022-12-16T16:15:01.782Z,33.06
2022-12-16T16:17:17.551Z,33.00
2022-12-16T16:19:33.262Z,32.94
2022-12-16T16:21:49.045Z,32.94
2022-12-16T16:24:04.427Z,32.88
2022-12-16T16:26:19.954Z,32.81
2022-12-16T16:28:35.510Z,32.75
2022-12-16T16:30:51.325Z,32.69
2022-12-16T16:33:07.054Z,32.69
2022-12-16T16:35:22.928Z,32.63
2022-12-16T16:37:38.771Z,32.56
2022-12-16T16:39:54.340Z,32.56
2022-12-16T16:42:11.804Z,32.50
2022-12-16T16:44:27.504Z,32.44
2022-12-16T16:46:43.500Z,32.44
2022-12-16T16:48:59.217Z,32.38
2022-12-16T16:51:15.194Z,32.38
2022-12-16T16:53:31.135Z,32.38
2022-12-16T16:55:46.669Z,32.38
2022-12-16T16:58:02.534Z,32.31
2022-12-16T17:00:18.443Z,32.31
2022-12-16T17:02:40.211Z,32.31
2022-12-16T17:04:56.673Z,32.31
2022-12-16T17:07:12.451Z,32.31
2022-12-16T17:09:28.134Z,32.31
2022-12-16T17:11:45.335Z,32.31
2022-12-16T17:14:00.799Z,32.31
2022-12-16T17:16:16.520Z,32.31
2022-12-16T17:18:32.583Z,32.31
2022-12-16T17:20:48.482Z,32.31
2022-12-16T17:23:04.050Z,32.31
2022-12-16T17:25:20.039Z,32.38
2022-12-16T17:27:35.749Z,32.38
2022-12-16T17:29:51.494Z,32.38
2022-12-16T17:32:07.246Z,32.38
2022-12-16T17:34:23.109Z,32.38
2022-12-16T17:36:38.789Z,32.44
2022-12-16T17:39:06.196Z,32.44
2022-12-16T17:41:21.762Z,32.44
2022-12-16T17:43:37.185Z,32.44
2022-12-16T17:45:53.119Z,32.38
2022-12-16T17:48:08.981Z,32.38
2022-12-16T17:50:24.686Z,32.44
2022-12-16T17:52:40.555Z,32.44
2022-12-16T17:54:56.214Z,32.38
2022-12-16T17:57:12.034Z,32.44
2022-12-16T17:59:27.912Z,32.38
2022-12-16T18:01:43.886Z,32.38
2022-12-16T18:03:59.643Z,29.44
2022-12-16T18:06:15.486Z,28.38
2022-12-16T18:08:31.264Z,26.31
2022-12-16T18:10:47.071Z,24.69
2022-12-16T18:13:03.193Z,28.00
2022-12-16T18:15:18.732Z,27.94
2022-12-16T18:17:34.114Z,28.63
2022-12-16T18:19:50.018Z,29.06
2022-12-16T18:22:17.416Z,29.38
2022-12-16T18:24:32.995Z,29.56
2022-12-16T18:26:48.547Z,29.94
2022-12-16T18:29:04.296Z,30.50
2022-12-16T18:31:20.225Z,30.81
2022-12-16T18:33:36.366Z,31.19
2022-12-16T18:35:52.095Z,31.50
2022-12-16T18:38:10.998Z,31.88
2022-12-16T18:40:29.037Z,32.13
2022-12-16T18:42:44.590Z,32.44
2022-12-16T18:45:01.481Z,32.69
2022-12-16T18:47:17.352Z,32.88
2022-12-16T18:49:32.931Z,33.13
2022-12-16T18:51:48.901Z,33.31
2022-12-16T18:54:04.811Z,33.44
2022-12-16T18:56:20.500Z,33.63
2022-12-16T18:58:51.422Z,33.75
2022-12-16T19:01:07.608Z,33.81
2022-12-16T19:03:23.579Z,33.94
2022-12-16T19:05:39.455Z,33.94
2022-12-16T19:07:55.061Z,34.00
2022-12-16T19:10:10.806Z,34.00
2022-12-16T19:12:26.628Z,34.00
2022-12-16T19:14:38.663Z,33.94
2022-12-16T19:16:54.253Z,33.88
2022-12-16T19:19:12.725Z,33.81
2022-12-16T19:21:32.340Z,33.69
2022-12-16T19:23:48.102Z,33.63
2022-12-16T19:26:04.082Z,33.50
2022-12-16T19:28:19.787Z,33.31
2022-12-16T19:30:35.292Z,33.25
2022-12-16T19:32:51.103Z,33.13
2022-12-16T19:35:07.276Z,33.06
2022-12-16T19:37:24.041Z,32.94
2022-12-16T19:39:39.937Z,32.88
2022-12-16T19:41:56.237Z,32.75
2022-12-16T19:44:12.424Z,32.69
2022-12-16T19:46:28.055Z,32.63
2022-12-16T19:48:43.874Z,32.44
2022-12-16T19:50:59.838Z,32.44
2022-12-16T19:53:15.676Z,32.38
2022-12-16T19:55:31.558Z,32.31
2022-12-16T19:57:47.402Z,32.25
2022-12-16T20:00:03.360Z,32.19
2022-12-16T20:02:19.561Z,32.19
2022-12-16T20:04:35.038Z,32.13
2022-12-16T20:06:50.728Z,32.06
2022-12-16T20:09:07.356Z,32.00
2022-12-16T20:11:22.923Z,32.00
2022-12-16T20:13:38.749Z,31.94
2022-12-16T20:15:54.707Z,31.94
2022-12-16T20:18:12.137Z,31.88
2022-12-16T20:20:27.761Z,31.81
2022-12-16T20:22:43.725Z,31.81
2022-12-16T20:24:59.369Z,31.81
2022-12-16T20:27:15.157Z,31.81
2022-12-16T20:29:30.844Z,31.81
2022-12-16T20:31:46.577Z,31.81
2022-12-16T20:34:14.118Z,31.81
2022-12-16T20:36:37.630Z,31.88
2022-12-16T20:38:53.507Z,31.88
2022-12-16T20:41:09.038Z,31.88
2022-12-16T20:43:25.318Z,31.81
2022-12-16T20:45:41.119Z,31.88
2022-12-16T20:47:56.771Z,31.88
2022-12-16T20:50:12.559Z,31.88
2022-12-16T20:52:28.088Z,31.88
2022-12-16T20:54:43.985Z,31.94
2022-12-16T20:56:59.775Z,31.94
2022-12-16T20:59:15.373Z,31.94
2022-12-16T21:01:30.211Z,31.94
2022-12-16T21:03:46.133Z,31.94
2022-12-16T21:06:01.756Z,31.94
2022-12-16T21:08:17.529Z,32.00
2022-12-16T21:10:33.113Z,32.00
2022-12-16T21:12:49.038Z,32.06
2022-12-16T21:15:04.746Z,32.13
2022-12-16T21:17:22.762Z,28.44
2022-12-16T21:19:38.391Z,27.25
2022-12-16T21:21:54.231Z,25.94
2022-12-16T21:24:12.143Z,24.63
2022-12-16T21:26:28.016Z,28.00
2022-12-16T21:28:43.622Z,28.69
2022-12-16T21:30:59.453Z,29.25
2022-12-16T21:33:15.083Z,29.63
2022-12-16T21:35:31.021Z,29.81
2022-12-16T21:37:46.776Z,30.13
2022-12-16T21:40:02.708Z,30.63
2022-12-16T21:42:18.413Z,31.00
2022-12-16T21:44:34.071Z,31.44
2022-12-16T21:46:49.965Z,31.81
2022-12-16T21:49:05.962Z,32.13
2022-12-16T21:51:21.854Z,32.44
2022-12-16T21:53:37.590Z,32.75
2022-12-16T21:55:53.436Z,33.00
2022-12-16T21:58:09.211Z,33.31
2022-12-16T22:00:25.017Z,33.50
2022-12-16T22:02:40.785Z,33.75
2022-12-16T22:04:56.757Z,33.88
2022-12-16T22:07:24.386Z,34.06
2022-12-16T22:09:40.426Z,34.19
2022-12-16T22:11:55.434Z,34.25
2022-12-16T22:14:11.946Z,34.38
2022-12-16T22:16:28.021Z,34.38
2022-12-16T22:18:58.301Z,34.44
2022-12-16T22:21:13.850Z,34.50
2022-12-16T22:23:29.774Z,34.50
2022-12-16T22:25:57.134Z,34.44
2022-12-16T22:28:12.820Z,34.38
2022-12-16T22:30:28.341Z,34.31
2022-12-16T22:32:43.965Z,34.19
2022-12-16T22:34:59.994Z,34.06
2022-12-16T22:37:15.719Z,34.06
2022-12-16T22:39:31.676Z,33.88
2022-12-16T22:41:47.409Z,33.75
2022-12-16T22:44:11.468Z,33.69
2022-12-16T22:46:27.154Z,33.56
2022-12-16T22:48:43.231Z,33.50
2022-12-16T22:50:59.113Z,33.25
2022-12-16T22:53:14.861Z,33.25
2022-12-16T22:55:30.485Z,33.19
2022-12-16T22:57:46.120Z,33.06
2022-12-16T23:00:16.452Z,32.88
2022-12-16T23:02:37.588Z,31.31
2022-12-16T23:04:53.634Z,30.94
2022-12-16T23:07:09.678Z,30.63
2022-12-16T23:09:25.066Z,30.19
2022-12-16T23:11:40.878Z,29.88
2022-12-16T23:13:56.780Z,29.56
2022-12-16T23:16:27.141Z,29.44
2022-12-16T23:18:42.475Z,29.00
2022-12-16T23:20:57.890Z,28.81
2022-12-16T23:23:13.298Z,28.81
2022-12-16T23:25:28.807Z,28.69
2022-12-16T23:27:44.742Z,28.13
2022-12-16T23:30:00.669Z,28.00
2022-12-16T23:32:16.481Z,27.81
2022-12-16T23:34:32.289Z,27.69
2022-12-16T23:36:47.971Z,27.81
2022-12-16T23:39:03.720Z,27.63
2022-12-16T23:41:19.659Z,27.50
2022-12-16T23:43:35.556Z,27.63
2022-12-16T23:45:51.070Z,27.56
2022-12-16T23:48:07.839Z,27.94
2022-12-16T23:50:23.568Z,28.31
2022-12-16T23:52:39.485Z,28.44
2022-12-16T23:54:55.010Z,28.56
2022-12-16T23:57:12.075Z,28.38
2022-12-16T23:59:27.761Z,28.44
